sensor_id;sensor_type;location;lat;lon;timestamp;temperature;humidity
17495;DHT22;8864;51.970;4.614;2022-08-19T00:00:01;24.20;78.00
17495;DHT22;8864;51.970;4.614;2022-08-19T00:31:51;24.20;77.60
17495;DHT22;8864;51.970;4.614;2022-08-19T00:36:53;24.10;77.20
17495;DHT22;8864;51.970;4.614;2022-08-19T00:39:39;24.10;77.40
17495;DHT22;8864;51.970;4.614;2022-08-19T00:42:24;24.10;77.70
17495;DHT22;8864;51.970;4.614;2022-08-19T00:47:55;24.00;77.90
17495;DHT22;8864;51.970;4.614;2022-08-19T01:13:48;23.80;79.00
17495;DHT22;8864;51.970;4.614;2022-08-19T01:16:18;23.80;79.00
17495;DHT22;8864;51.970;4.614;2022-08-19T01:24:35;23.80;79.00
17495;DHT22;8864;51.970;4.614;2022-08-19T01:33:42;23.70;79.30
17495;DHT22;8864;51.970;4.614;2022-08-19T01:36:12;23.80;79.40
17495;DHT22;8864;51.970;4.614;2022-08-19T01:38:41;23.70;79.10
17495;DHT22;8864;51.970;4.614;2022-08-19T01:41:10;23.70;79.10
17495;DHT22;8864;51.970;4.614;2022-08-19T01:43:37;23.70;79.00
17495;DHT22;8864;51.970;4.614;2022-08-19T01:46:04;23.70;78.90
17495;DHT22;8864;51.970;4.614;2022-08-19T01:51:10;23.70;78.80
17495;DHT22;8864;51.970;4.614;2022-08-19T01:53:39;23.70;78.80
17495;DHT22;8864;51.970;4.614;2022-08-19T01:56:08;23.70;79.60
17495;DHT22;8864;51.970;4.614;2022-08-19T01:58:39;23.80;78.90
17495;DHT22;8864;51.970;4.614;2022-08-19T02:01:11;23.70;79.00
17495;DHT22;8864;51.970;4.614;2022-08-19T02:03:39;23.80;78.80
17495;DHT22;8864;51.970;4.614;2022-08-19T02:06:29;23.80;78.70
17495;DHT22;8864;51.970;4.614;2022-08-19T02:09:01;23.80;78.60
17495;DHT22;8864;51.970;4.614;2022-08-19T02:11:52;23.80;78.50
17495;DHT22;8864;51.970;4.614;2022-08-19T02:17:12;23.80;78.40
17495;DHT22;8864;51.970;4.614;2022-08-19T02:26:52;23.90;78.50
17495;DHT22;8864;51.970;4.614;2022-08-19T02:29:42;23.80;78.60
17495;DHT22;8864;51.970;4.614;2022-08-19T02:35:36;23.80;78.60
17495;DHT22;8864;51.970;4.614;2022-08-19T02:38:36;23.70;78.80
17495;DHT22;8864;51.970;4.614;2022-08-19T03:17:57;23.70;79.50
17495;DHT22;8864;51.970;4.614;2022-08-19T03:27:03;23.70;79.60
17495;DHT22;8864;51.970;4.614;2022-08-19T03:29:47;23.70;79.70
17495;DHT22;8864;51.970;4.614;2022-08-19T03:32:17;23.60;79.60
17495;DHT22;8864;51.970;4.614;2022-08-19T03:38:17;23.70;79.60
17495;DHT22;8864;51.970;4.614;2022-08-19T04:03:37;23.60;80.40
17495;DHT22;8864;51.970;4.614;2022-08-19T04:09:53;23.70;80.50
17495;DHT22;8864;51.970;4.614;2022-08-19T04:12:42;23.60;80.40
17495;DHT22;8864;51.970;4.614;2022-08-19T04:15:24;23.70;80.60
17495;DHT22;8864;51.970;4.614;2022-08-19T04:18:18;23.70;80.50
17495;DHT22;8864;51.970;4.614;2022-08-19T04:21:24;23.60;80.60
17495;DHT22;8864;51.970;4.614;2022-08-19T04:24:41;23.60;80.80
17495;DHT22;8864;51.970;4.614;2022-08-19T04:27:30;23.60;81.20
17495;DHT22;8864;51.970;4.614;2022-08-19T04:38:41;23.60;81.30
17495;DHT22;8864;51.970;4.614;2022-08-19T04:41:08;23.50;81.30
17495;DHT22;8864;51.970;4.614;2022-08-19T04:44:03;23.60;81.40
17495;DHT22;8864;51.970;4.614;2022-08-19T04:46:33;23.60;81.30
17495;DHT22;8864;51.970;4.614;2022-08-19T04:49:01;23.60;81.40
17495;DHT22;8864;51.970;4.614;2022-08-19T04:51:32;23.60;81.60
17495;DHT22;8864;51.970;4.614;2022-08-19T04:53:59;23.60;81.80
17495;DHT22;8864;51.970;4.614;2022-08-19T04:56:27;23.60;81.70
17495;DHT22;8864;51.970;4.614;2022-08-19T04:58:55;23.60;81.90
17495;DHT22;8864;51.970;4.614;2022-08-19T05:01:24;23.60;81.90
17495;DHT22;8864;51.970;4.614;2022-08-19T05:03:59;23.60;82.10
17495;DHT22;8864;51.970;4.614;2022-08-19T05:06:34;23.60;82.30
17495;DHT22;8864;51.970;4.614;2022-08-19T05:09:24;23.50;82.30
17495;DHT22;8864;51.970;4.614;2022-08-19T05:16:12;23.60;82.80
17495;DHT22;8864;51.970;4.614;2022-08-19T05:26:00;23.60;83.30
17495;DHT22;8864;51.970;4.614;2022-08-19T05:28:41;23.50;83.40
17495;DHT22;8864;51.970;4.614;2022-08-19T05:31:19;23.50;83.50
17495;DHT22;8864;51.970;4.614;2022-08-19T05:34:06;23.50;83.80
17495;DHT22;8864;51.970;4.614;2022-08-19T05:37:07;23.50;83.90
17495;DHT22;8864;51.970;4.614;2022-08-19T05:39:42;23.50;83.90
17495;DHT22;8864;51.970;4.614;2022-08-19T05:43:02;23.50;84.10
17495;DHT22;8864;51.970;4.614;2022-08-19T05:45:29;23.50;83.90
17495;DHT22;8864;51.970;4.614;2022-08-19T05:47:57;23.60;83.90
17495;DHT22;8864;51.970;4.614;2022-08-19T05:50:24;23.60;83.70
17495;DHT22;8864;51.970;4.614;2022-08-19T05:52:52;23.60;83.70
17495;DHT22;8864;51.970;4.614;2022-08-19T05:55:20;23.60;83.70
17495;DHT22;8864;51.970;4.614;2022-08-19T05:57:47;23.60;83.70
17495;DHT22;8864;51.970;4.614;2022-08-19T06:00:15;23.60;83.90
17495;DHT22;8864;51.970;4.614;2022-08-19T06:02:42;23.60;83.70
17495;DHT22;8864;51.970;4.614;2022-08-19T06:05:10;23.60;83.80
17495;DHT22;8864;51.970;4.614;2022-08-19T06:07:37;23.60;83.90
17495;DHT22;8864;51.970;4.614;2022-08-19T06:56:40;23.80;84.30
17495;DHT22;8864;51.970;4.614;2022-08-19T06:59:10;23.80;84.20
17495;DHT22;8864;51.970;4.614;2022-08-19T07:01:39;23.80;84.40
17495;DHT22;8864;51.970;4.614;2022-08-19T07:04:08;23.80;84.50
17495;DHT22;8864;51.970;4.614;2022-08-19T07:06:36;23.90;84.60
17495;DHT22;8864;51.970;4.614;2022-08-19T07:09:03;23.90;84.50
17495;DHT22;8864;51.970;4.614;2022-08-19T07:11:30;24.00;84.60
17495;DHT22;8864;51.970;4.614;2022-08-19T07:13:59;24.00;84.60
17495;DHT22;8864;51.970;4.614;2022-08-19T07:16:26;24.00;84.60
17495;DHT22;8864;51.970;4.614;2022-08-19T07:18:54;24.00;84.50
17495;DHT22;8864;51.970;4.614;2022-08-19T07:21:27;24.00;84.50
17495;DHT22;8864;51.970;4.614;2022-08-19T07:23:55;24.00;84.70
17495;DHT22;8864;51.970;4.614;2022-08-19T07:26:25;24.00;84.90
17495;DHT22;8864;51.970;4.614;2022-08-19T07:28:53;24.00;84.90
17495;DHT22;8864;51.970;4.614;2022-08-19T07:31:23;24.00;85.00
17495;DHT22;8864;51.970;4.614;2022-08-19T07:33:52;24.10;85.30
17495;DHT22;8864;51.970;4.614;2022-08-19T07:36:23;24.10;85.20
17495;DHT22;8864;51.970;4.614;2022-08-19T07:38:53;24.10;85.30
17495;DHT22;8864;51.970;4.614;2022-08-19T07:43:56;24.10;85.90
17495;DHT22;8864;51.970;4.614;2022-08-19T07:46:24;24.20;86.00
17495;DHT22;8864;51.970;4.614;2022-08-19T07:48:53;24.20;86.00
17495;DHT22;8864;51.970;4.614;2022-08-19T09:39:08;24.70;84.60
17495;DHT22;8864;51.970;4.614;2022-08-19T09:41:49;24.80;84.50
17495;DHT22;8864;51.970;4.614;2022-08-19T09:47:54;24.80;84.00
17495;DHT22;8864;51.970;4.614;2022-08-19T09:50:43;24.80;84.30
17495;DHT22;8864;51.970;4.614;2022-08-19T09:56:58;24.80;83.90
17495;DHT22;8864;51.970;4.614;2022-08-19T09:59:26;24.80;83.70
17495;DHT22;8864;51.970;4.614;2022-08-19T10:01:53;24.80;83.70
17495;DHT22;8864;51.970;4.614;2022-08-19T10:04:21;24.70;83.70
17495;DHT22;8864;51.970;4.614;2022-08-19T10:06:50;24.80;85.10
17495;DHT22;8864;51.970;4.614;2022-08-19T10:09:17;24.80;85.30
17495;DHT22;8864;51.970;4.614;2022-08-19T10:11:45;24.70;85.00
17495;DHT22;8864;51.970;4.614;2022-08-19T10:14:14;24.70;84.90
17495;DHT22;8864;51.970;4.614;2022-08-19T10:16:42;24.70;84.70
17495;DHT22;8864;51.970;4.614;2022-08-19T10:19:09;24.70;84.80
17495;DHT22;8864;51.970;4.614;2022-08-19T13:35:06;25.30;84.40
17495;DHT22;8864;51.970;4.614;2022-08-19T13:37:33;25.30;84.20
17495;DHT22;8864;51.970;4.614;2022-08-19T13:40:11;25.40;84.10
17495;DHT22;8864;51.970;4.614;2022-08-19T13:42:41;25.30;84.20
17495;DHT22;8864;51.970;4.614;2022-08-19T13:47:45;25.40;84.40
17495;DHT22;8864;51.970;4.614;2022-08-19T13:53:12;25.40;84.30
17495;DHT22;8864;51.970;4.614;2022-08-19T13:55:56;25.40;84.60
17495;DHT22;8864;51.970;4.614;2022-08-19T13:58:58;25.40;84.80
17495;DHT22;8864;51.970;4.614;2022-08-19T14:01:40;25.40;84.70
17495;DHT22;8864;51.970;4.614;2022-08-19T14:04:07;25.40;84.90
17495;DHT22;8864;51.970;4.614;2022-08-19T14:06:40;25.40;84.90
17495;DHT22;8864;51.970;4.614;2022-08-19T14:09:10;25.40;85.00
17495;DHT22;8864;51.970;4.614;2022-08-19T14:11:41;25.40;85.70
17495;DHT22;8864;51.970;4.614;2022-08-19T14:57:24;25.40;89.40
17495;DHT22;8864;51.970;4.614;2022-08-19T15:06:44;25.40;88.20
17495;DHT22;8864;51.970;4.614;2022-08-19T15:09:42;25.40;87.90
17495;DHT22;8864;51.970;4.614;2022-08-19T15:18:48;25.50;86.70
17495;DHT22;8864;51.970;4.614;2022-08-19T15:21:16;25.40;86.30
17495;DHT22;8864;51.970;4.614;2022-08-19T15:23:49;25.40;86.00
17495;DHT22;8864;51.970;4.614;2022-08-19T15:26:20;25.40;85.80
17495;DHT22;8864;51.970;4.614;2022-08-19T15:28:47;25.40;85.80
17495;DHT22;8864;51.970;4.614;2022-08-19T15:31:18;25.40;85.60
17495;DHT22;8864;51.970;4.614;2022-08-19T15:33:45;25.40;85.20
17495;DHT22;8864;51.970;4.614;2022-08-19T15:36:13;25.40;84.90
17495;DHT22;8864;51.970;4.614;2022-08-19T15:38:40;25.40;84.90
17495;DHT22;8864;51.970;4.614;2022-08-19T15:41:16;25.40;84.70
17495;DHT22;8864;51.970;4.614;2022-08-19T15:43:53;25.40;85.60
17495;DHT22;8864;51.970;4.614;2022-08-19T15:46:23;25.30;86.20
17495;DHT22;8864;51.970;4.614;2022-08-19T15:48:52;25.30;87.10
17495;DHT22;8864;51.970;4.614;2022-08-19T15:51:20;25.20;87.20
17495;DHT22;8864;51.970;4.614;2022-08-19T15:53:48;25.30;87.50
17495;DHT22;8864;51.970;4.614;2022-08-19T15:56:16;25.20;87.80
17495;DHT22;8864;51.970;4.614;2022-08-19T16:01:49;25.20;88.00
17495;DHT22;8864;51.970;4.614;2022-08-19T17:17:22;25.50;86.10
17495;DHT22;8864;51.970;4.614;2022-08-19T17:20:36;25.50;85.80
